メインページ
METAR-TAF:

METAR-TAF

空港 :

ハミルトン・ジョン・C・マンロ国際空港

ハミルトン, オンタリオ州, カナダ

緯度: 43-10N, 経度: 079-56W, 海抜: 237m

現時点の気象観測

当レポートは55分前の10:00(UTC)に作成
西/南西の風 14kt、最大20ktの突風を伴う
気温 -3°C
湿度 58%
気圧 1022 hPa
視程: 24.1km
高度25000ftの雲はほとんどない

METAR: CYHM 221000Z 24014G20KT 15SM FEW250 M03/M10 A3017 RMK CI1 CI TR SLP231

時間: 05:55 (10:55 UTC)

予報

当レポートは5時間16分前の05:39(UTC)に作成
予報は22日の 06時(UTC)から 23日の 06時(UTC)まで有効
南西の風 17kt、最大27ktの突風を伴う
視程: 10km
晴天
22日の 1000時(UTC)から
西/南西の風 15kt
視程: 10km
高度2000ftの雲は散在している
22日の 12時(UTC)から 22日の 15時(UTC)まで一時的に
高度2000ftの千切れ雲あり
22日の 1700時(UTC)から
西/南西の風 12kt、最大22ktの突風を伴う
視程: 10km
高度2500ftの雲は散在している

TAF: CYHM 220539Z 2206/2306 23017G27KT P6SM SKC FM221000 24015KT P6SM SCT020 TEMPO 2212/2215 BKN020 FM221700 24012G22KT P6SM SCT025 RMK NXT FCST BY 221200Z

4,000以上の空港の気象観測と天気予報(METAR報とTAF報)

利用可能な観測所は地図上に黄色い丸と赤い丸で示す。

丸の上にカーソルを重ねると観測所名を参照できる。

次にクリックすると気象観測と天気予報を参照できる。

マップの切り替え:黒色「×」印の緑ボタンをクリックして拡大、「-」印の緑ボタンをクリックして縮小、緑色の三角印をクリックして隣りの地図に切り替え


METAR-TAF: